<?xml version="1.0" encoding="UTF-8" standalone="no" ?>
<gpx xmlns="http://www.topografix.com/GPX/1/1" xmlns:xsi="http://www.w3.org/2001/XMLSchema-instance" xsi:schemaLocation="http://www.topografix.com/GPX/1/1 http://www.topografix.com/GPX/1/1/gpx.xsd" version="1.1" creator="VisuGPX - https://www.visugpx.com">
  <metadata>
    <name>Col des Tentes - Cabane des Soldats</name>
  </metadata>
  <trk>
    <name><![CDATA[Col des Tentes - Cabane des Soldats_2]]></name>
    <trkseg>
      <trkpt lat="42.69744" lon="-0.03492">
        <ele>2587</ele>
        <time>2013-06-07T06:08:58Z</time>
      </trkpt>
      <trkpt lat="42.6974" lon="-0.03489">
        <ele>2589</ele>
        <time>2013-06-07T06:09:02Z</time>
      </trkpt>
      <trkpt lat="42.69737" lon="-0.03483">
        <ele>2590</ele>
        <time>2013-06-07T06:09:12Z</time>
      </trkpt>
      <trkpt lat="42.69734" lon="-0.03482">
        <ele>2590</ele>
        <time>2013-06-07T06:09:19Z</time>
      </trkpt>
      <trkpt lat="42.69733" lon="-0.03482">
        <ele>2591</ele>
        <time>2013-06-07T06:09:26Z</time>
      </trkpt>
      <trkpt lat="42.69732" lon="-0.03482">
        <ele>2592</ele>
        <time>2013-06-07T06:09:32Z</time>
      </trkpt>
      <trkpt lat="42.69735" lon="-0.03483">
        <ele>2592</ele>
        <time>2013-06-07T06:09:41Z</time>
      </trkpt>
      <trkpt lat="42.69736" lon="-0.03486">
        <ele>2592</ele>
        <time>2013-06-07T06:09:52Z</time>
      </trkpt>
      <trkpt lat="42.69737" lon="-0.0348">
        <ele>2592</ele>
        <time>2013-06-07T06:10:08Z</time>
      </trkpt>
      <trkpt lat="42.69737" lon="-0.03482">
        <ele>2592</ele>
        <time>2013-06-07T06:10:28Z</time>
      </trkpt>
      <trkpt lat="42.69737" lon="-0.03481">
        <ele>2593</ele>
        <time>2013-06-07T06:10:44Z</time>
      </trkpt>
      <trkpt lat="42.69736" lon="-0.03481">
        <ele>2593</ele>
        <time>2013-06-07T06:10:53Z</time>
      </trkpt>
      <trkpt lat="42.69729" lon="-0.03479">
        <ele>2591</ele>
        <time>2013-06-07T06:11:00Z</time>
      </trkpt>
      <trkpt lat="42.6972" lon="-0.03478">
        <ele>2591</ele>
        <time>2013-06-07T06:11:07Z</time>
      </trkpt>
      <trkpt lat="42.69712" lon="-0.0348">
        <ele>2592</ele>
        <time>2013-06-07T06:11:17Z</time>
      </trkpt>
      <trkpt lat="42.69706" lon="-0.03476">
        <ele>2594</ele>
        <time>2013-06-07T06:11:25Z</time>
      </trkpt>
      <trkpt lat="42.69699" lon="-0.03471">
        <ele>2594</ele>
        <time>2013-06-07T06:11:34Z</time>
      </trkpt>
      <trkpt lat="42.69695" lon="-0.03469">
        <ele>2595</ele>
        <time>2013-06-07T06:11:39Z</time>
      </trkpt>
      <trkpt lat="42.6969" lon="-0.03464">
        <ele>2596</ele>
        <time>2013-06-07T06:11:47Z</time>
      </trkpt>
      <trkpt lat="42.69685" lon="-0.0346">
        <ele>2598</ele>
        <time>2013-06-07T06:11:54Z</time>
      </trkpt>
      <trkpt lat="42.69681" lon="-0.03455">
        <ele>2599</ele>
        <time>2013-06-07T06:12:02Z</time>
      </trkpt>
      <trkpt lat="42.69675" lon="-0.03451">
        <ele>2600</ele>
        <time>2013-06-07T06:12:11Z</time>
      </trkpt>
      <trkpt lat="42.69671" lon="-0.03447">
        <ele>2600</ele>
        <time>2013-06-07T06:12:18Z</time>
      </trkpt>
      <trkpt lat="42.69667" lon="-0.03441">
        <ele>2601</ele>
        <time>2013-06-07T06:12:25Z</time>
      </trkpt>
      <trkpt lat="42.69662" lon="-0.03434">
        <ele>2601</ele>
        <time>2013-06-07T06:12:33Z</time>
      </trkpt>
      <trkpt lat="42.69658" lon="-0.03426">
        <ele>2601</ele>
        <time>2013-06-07T06:12:44Z</time>
      </trkpt>
      <trkpt lat="42.69653" lon="-0.0342">
        <ele>2600</ele>
        <time>2013-06-07T06:12:52Z</time>
      </trkpt>
      <trkpt lat="42.69649" lon="-0.03413">
        <ele>2600</ele>
        <time>2013-06-07T06:13:00Z</time>
      </trkpt>
      <trkpt lat="42.69643" lon="-0.03407">
        <ele>2599</ele>
        <time>2013-06-07T06:13:07Z</time>
      </trkpt>
      <trkpt lat="42.69637" lon="-0.03399">
        <ele>2598</ele>
        <time>2013-06-07T06:13:18Z</time>
      </trkpt>
      <trkpt lat="42.69633" lon="-0.03393">
        <ele>2597</ele>
        <time>2013-06-07T06:13:28Z</time>
      </trkpt>
      <trkpt lat="42.6963" lon="-0.03387">
        <ele>2595</ele>
        <time>2013-06-07T06:13:36Z</time>
      </trkpt>
      <trkpt lat="42.69627" lon="-0.03384">
        <ele>2595</ele>
        <time>2013-06-07T06:13:43Z</time>
      </trkpt>
      <trkpt lat="42.69621" lon="-0.03379">
        <ele>2595</ele>
        <time>2013-06-07T06:13:53Z</time>
      </trkpt>
      <trkpt lat="42.69614" lon="-0.03374">
        <ele>2595</ele>
        <time>2013-06-07T06:14:00Z</time>
      </trkpt>
      <trkpt lat="42.69608" lon="-0.0337">
        <ele>2595</ele>
        <time>2013-06-07T06:14:08Z</time>
      </trkpt>
      <trkpt lat="42.69603" lon="-0.03365">
        <ele>2595</ele>
        <time>2013-06-07T06:14:16Z</time>
      </trkpt>
      <trkpt lat="42.69602" lon="-0.03362">
        <ele>2594</ele>
        <time>2013-06-07T06:14:24Z</time>
      </trkpt>
      <trkpt lat="42.696" lon="-0.03358">
        <ele>2593</ele>
        <time>2013-06-07T06:14:31Z</time>
      </trkpt>
      <trkpt lat="42.69599" lon="-0.03356">
        <ele>2593</ele>
        <time>2013-06-07T06:14:33Z</time>
      </trkpt>
      <trkpt lat="42.69596" lon="-0.0335">
        <ele>2591</ele>
        <time>2013-06-07T06:14:40Z</time>
      </trkpt>
      <trkpt lat="42.69592" lon="-0.03344">
        <ele>2591</ele>
        <time>2013-06-07T06:14:48Z</time>
      </trkpt>
      <trkpt lat="42.69588" lon="-0.03341">
        <ele>2591</ele>
        <time>2013-06-07T06:14:56Z</time>
      </trkpt>
      <trkpt lat="42.69588" lon="-0.0334">
        <ele>2592</ele>
        <time>2013-06-07T06:15:06Z</time>
      </trkpt>
      <trkpt lat="42.69588" lon="-0.03341">
        <ele>2592</ele>
        <time>2013-06-07T06:15:15Z</time>
      </trkpt>
      <trkpt lat="42.69586" lon="-0.03342">
        <ele>2592</ele>
        <time>2013-06-07T06:15:28Z</time>
      </trkpt>
      <trkpt lat="42.69587" lon="-0.03343">
        <ele>2592</ele>
        <time>2013-06-07T06:15:37Z</time>
      </trkpt>
      <trkpt lat="42.69588" lon="-0.03343">
        <ele>2593</ele>
        <time>2013-06-07T06:15:45Z</time>
      </trkpt>
      <trkpt lat="42.69591" lon="-0.03343">
        <ele>2592</ele>
        <time>2013-06-07T06:16:00Z</time>
      </trkpt>
      <trkpt lat="42.69591" lon="-0.03343">
        <ele>2593</ele>
        <time>2013-06-07T06:16:02Z</time>
      </trkpt>
      <trkpt lat="42.69591" lon="-0.03343">
        <ele>2593</ele>
        <time>2013-06-07T06:16:16Z</time>
      </trkpt>
      <trkpt lat="42.6959" lon="-0.03343">
        <ele>2593</ele>
        <time>2013-06-07T06:16:27Z</time>
      </trkpt>
      <trkpt lat="42.69589" lon="-0.03343">
        <ele>2593</ele>
        <time>2013-06-07T06:16:45Z</time>
      </trkpt>
      <trkpt lat="42.69587" lon="-0.0334">
        <ele>2593</ele>
        <time>2013-06-07T06:16:57Z</time>
      </trkpt>
      <trkpt lat="42.69587" lon="-0.03338">
        <ele>2593</ele>
        <time>2013-06-07T06:17:19Z</time>
      </trkpt>
      <trkpt lat="42.69588" lon="-0.0334">
        <ele>2593</ele>
        <time>2013-06-07T06:17:36Z</time>
      </trkpt>
      <trkpt lat="42.69586" lon="-0.03342">
        <ele>2593</ele>
        <time>2013-06-07T06:18:02Z</time>
      </trkpt>
      <trkpt lat="42.69586" lon="-0.03342">
        <ele>2593</ele>
        <time>2013-06-07T06:18:13Z</time>
      </trkpt>
      <trkpt lat="42.6959" lon="-0.03341">
        <ele>2593</ele>
        <time>2013-06-07T06:18:27Z</time>
      </trkpt>
      <trkpt lat="42.6959" lon="-0.03342">
        <ele>2593</ele>
        <time>2013-06-07T06:18:37Z</time>
      </trkpt>
      <trkpt lat="42.6959" lon="-0.03342">
        <ele>2594</ele>
        <time>2013-06-07T06:18:48Z</time>
      </trkpt>
      <trkpt lat="42.69591" lon="-0.03345">
        <ele>2594</ele>
        <time>2013-06-07T06:19:02Z</time>
      </trkpt>
      <trkpt lat="42.6959" lon="-0.03344">
        <ele>2593</ele>
        <time>2013-06-07T06:19:14Z</time>
      </trkpt>
      <trkpt lat="42.69588" lon="-0.03345">
        <ele>2594</ele>
        <time>2013-06-07T06:19:23Z</time>
      </trkpt>
      <trkpt lat="42.69588" lon="-0.03344">
        <ele>2594</ele>
        <time>2013-06-07T06:19:37Z</time>
      </trkpt>
      <trkpt lat="42.6959" lon="-0.03343">
        <ele>2594</ele>
        <time>2013-06-07T06:19:48Z</time>
      </trkpt>
      <trkpt lat="42.69591" lon="-0.03342">
        <ele>2594</ele>
        <time>2013-06-07T06:19:55Z</time>
      </trkpt>
      <trkpt lat="42.69591" lon="-0.0334">
        <ele>2594</ele>
        <time>2013-06-07T06:20:08Z</time>
      </trkpt>
      <trkpt lat="42.69584" lon="-0.03342">
        <ele>2594</ele>
        <time>2013-06-07T06:20:29Z</time>
      </trkpt>
      <trkpt lat="42.69586" lon="-0.03339">
        <ele>2594</ele>
        <time>2013-06-07T06:21:00Z</time>
      </trkpt>
      <trkpt lat="42.69586" lon="-0.03341">
        <ele>2595</ele>
        <time>2013-06-07T06:21:13Z</time>
      </trkpt>
      <trkpt lat="42.69587" lon="-0.03342">
        <ele>2595</ele>
        <time>2013-06-07T06:21:25Z</time>
      </trkpt>
      <trkpt lat="42.69589" lon="-0.03343">
        <ele>2595</ele>
        <time>2013-06-07T06:21:36Z</time>
      </trkpt>
      <trkpt lat="42.69589" lon="-0.03344">
        <ele>2595</ele>
        <time>2013-06-07T06:21:48Z</time>
      </trkpt>
      <trkpt lat="42.69591" lon="-0.03343">
        <ele>2595</ele>
        <time>2013-06-07T06:22:01Z</time>
      </trkpt>
      <trkpt lat="42.69591" lon="-0.03343">
        <ele>2595</ele>
        <time>2013-06-07T06:22:14Z</time>
      </trkpt>
      <trkpt lat="42.69592" lon="-0.03341">
        <ele>2595</ele>
        <time>2013-06-07T06:22:25Z</time>
      </trkpt>
      <trkpt lat="42.6959" lon="-0.03337">
        <ele>2595</ele>
        <time>2013-06-07T06:22:41Z</time>
      </trkpt>
      <trkpt lat="42.69589" lon="-0.03338">
        <ele>2595</ele>
        <time>2013-06-07T06:22:52Z</time>
      </trkpt>
      <trkpt lat="42.69588" lon="-0.0334">
        <ele>2595</ele>
        <time>2013-06-07T06:23:02Z</time>
      </trkpt>
      <trkpt lat="42.69589" lon="-0.03343">
        <ele>2595</ele>
        <time>2013-06-07T06:23:16Z</time>
      </trkpt>
      <trkpt lat="42.69589" lon="-0.03343">
        <ele>2595</ele>
        <time>2013-06-07T06:23:29Z</time>
      </trkpt>
      <trkpt lat="42.6959" lon="-0.03341">
        <ele>2595</ele>
        <time>2013-06-07T06:23:38Z</time>
      </trkpt>
      <trkpt lat="42.6959" lon="-0.03339">
        <ele>2596</ele>
        <time>2013-06-07T06:23:51Z</time>
      </trkpt>
      <trkpt lat="42.69588" lon="-0.0334">
        <ele>2596</ele>
        <time>2013-06-07T06:24:07Z</time>
      </trkpt>
      <trkpt lat="42.69589" lon="-0.0334">
        <ele>2596</ele>
        <time>2013-06-07T06:24:23Z</time>
      </trkpt>
      <trkpt lat="42.69589" lon="-0.0334">
        <ele>2596</ele>
        <time>2013-06-07T06:24:35Z</time>
      </trkpt>
      <trkpt lat="42.69588" lon="-0.0334">
        <ele>2596</ele>
        <time>2013-06-07T06:24:47Z</time>
      </trkpt>
      <trkpt lat="42.69588" lon="-0.03341">
        <ele>2596</ele>
        <time>2013-06-07T06:24:58Z</time>
      </trkpt>
      <trkpt lat="42.69588" lon="-0.03342">
        <ele>2596</ele>
        <time>2013-06-07T06:25:08Z</time>
      </trkpt>
      <trkpt lat="42.6959" lon="-0.0334">
        <ele>2596</ele>
        <time>2013-06-07T06:25:17Z</time>
      </trkpt>
      <trkpt lat="42.6959" lon="-0.03339">
        <ele>2596</ele>
        <time>2013-06-07T06:25:30Z</time>
      </trkpt>
      <trkpt lat="42.69591" lon="-0.03342">
        <ele>2596</ele>
        <time>2013-06-07T06:25:37Z</time>
      </trkpt>
      <trkpt lat="42.69587" lon="-0.03345">
        <ele>2596</ele>
        <time>2013-06-07T06:25:45Z</time>
      </trkpt>
      <trkpt lat="42.69581" lon="-0.03353">
        <ele>2598</ele>
        <time>2013-06-07T06:25:56Z</time>
      </trkpt>
      <trkpt lat="42.69576" lon="-0.03361">
        <ele>2599</ele>
        <time>2013-06-07T06:26:06Z</time>
      </trkpt>
      <trkpt lat="42.6957" lon="-0.03367">
        <ele>2601</ele>
        <time>2013-06-07T06:26:14Z</time>
      </trkpt>
      <trkpt lat="42.69568" lon="-0.03369">
        <ele>2602</ele>
        <time>2013-06-07T06:26:22Z</time>
      </trkpt>
      <trkpt lat="42.69567" lon="-0.03369">
        <ele>2601</ele>
        <time>2013-06-07T06:26:44Z</time>
      </trkpt>
      <trkpt lat="42.69566" lon="-0.03369">
        <ele>2601</ele>
        <time>2013-06-07T06:27:04Z</time>
      </trkpt>
      <trkpt lat="42.69567" lon="-0.03369">
        <ele>2601</ele>
        <time>2013-06-07T06:27:20Z</time>
      </trkpt>
      <trkpt lat="42.69564" lon="-0.03372">
        <ele>2602</ele>
        <time>2013-06-07T06:27:26Z</time>
      </trkpt>
      <trkpt lat="42.69561" lon="-0.03376">
        <ele>2603</ele>
        <time>2013-06-07T06:27:31Z</time>
      </trkpt>
      <trkpt lat="42.69556" lon="-0.0338">
        <ele>2606</ele>
        <time>2013-06-07T06:27:40Z</time>
      </trkpt>
      <trkpt lat="42.6955" lon="-0.03386">
        <ele>2607</ele>
        <time>2013-06-07T06:27:51Z</time>
      </trkpt>
      <trkpt lat="42.69546" lon="-0.03392">
        <ele>2609</ele>
        <time>2013-06-07T06:28:00Z</time>
      </trkpt>
      <trkpt lat="42.69543" lon="-0.03396">
        <ele>2611</ele>
        <time>2013-06-07T06:28:10Z</time>
      </trkpt>
      <trkpt lat="42.69537" lon="-0.03404">
        <ele>2612</ele>
        <time>2013-06-07T06:28:19Z</time>
      </trkpt>
      <trkpt lat="42.69533" lon="-0.03408">
        <ele>2613</ele>
        <time>2013-06-07T06:28:25Z</time>
      </trkpt>
      <trkpt lat="42.69527" lon="-0.03413">
        <ele>2615</ele>
        <time>2013-06-07T06:28:35Z</time>
      </trkpt>
      <trkpt lat="42.69521" lon="-0.03419">
        <ele>2616</ele>
        <time>2013-06-07T06:28:45Z</time>
      </trkpt>
      <trkpt lat="42.69516" lon="-0.03422">
        <ele>2618</ele>
        <time>2013-06-07T06:28:53Z</time>
      </trkpt>
      <trkpt lat="42.69509" lon="-0.03428">
        <ele>2620</ele>
        <time>2013-06-07T06:29:04Z</time>
      </trkpt>
      <trkpt lat="42.695" lon="-0.03432">
        <ele>2622</ele>
        <time>2013-06-07T06:29:16Z</time>
      </trkpt>
      <trkpt lat="42.69495" lon="-0.03432">
        <ele>2624</ele>
        <time>2013-06-07T06:29:25Z</time>
      </trkpt>
      <trkpt lat="42.69494" lon="-0.03431">
        <ele>2625</ele>
        <time>2013-06-07T06:29:27Z</time>
      </trkpt>
      <trkpt lat="42.69488" lon="-0.03427">
        <ele>2626</ele>
        <time>2013-06-07T06:29:36Z</time>
      </trkpt>
      <trkpt lat="42.69483" lon="-0.03424">
        <ele>2627</ele>
        <time>2013-06-07T06:29:45Z</time>
      </trkpt>
      <trkpt lat="42.6948" lon="-0.03415">
        <ele>2630</ele>
        <time>2013-06-07T06:29:55Z</time>
      </trkpt>
      <trkpt lat="42.69477" lon="-0.03409">
        <ele>2631</ele>
        <time>2013-06-07T06:30:03Z</time>
      </trkpt>
      <trkpt lat="42.69474" lon="-0.03407">
        <ele>2632</ele>
        <time>2013-06-07T06:30:13Z</time>
      </trkpt>
      <trkpt lat="42.69468" lon="-0.03403">
        <ele>2635</ele>
        <time>2013-06-07T06:30:26Z</time>
      </trkpt>
      <trkpt lat="42.69466" lon="-0.03402">
        <ele>2635</ele>
        <time>2013-06-07T06:30:28Z</time>
      </trkpt>
      <trkpt lat="42.6946" lon="-0.03397">
        <ele>2637</ele>
        <time>2013-06-07T06:30:37Z</time>
      </trkpt>
      <trkpt lat="42.69454" lon="-0.03394">
        <ele>2639</ele>
        <time>2013-06-07T06:30:50Z</time>
      </trkpt>
      <trkpt lat="42.69451" lon="-0.03392">
        <ele>2641</ele>
        <time>2013-06-07T06:30:59Z</time>
      </trkpt>
      <trkpt lat="42.69446" lon="-0.03391">
        <ele>2643</ele>
        <time>2013-06-07T06:31:08Z</time>
      </trkpt>
      <trkpt lat="42.69442" lon="-0.0339">
        <ele>2645</ele>
        <time>2013-06-07T06:31:17Z</time>
      </trkpt>
      <trkpt lat="42.69436" lon="-0.0339">
        <ele>2647</ele>
        <time>2013-06-07T06:31:26Z</time>
      </trkpt>
      <trkpt lat="42.69431" lon="-0.03391">
        <ele>2648</ele>
        <time>2013-06-07T06:31:34Z</time>
      </trkpt>
      <trkpt lat="42.69426" lon="-0.0339">
        <ele>2650</ele>
        <time>2013-06-07T06:31:42Z</time>
      </trkpt>
      <trkpt lat="42.69422" lon="-0.03388">
        <ele>2652</ele>
        <time>2013-06-07T06:31:54Z</time>
      </trkpt>
      <trkpt lat="42.69418" lon="-0.03386">
        <ele>2654</ele>
        <time>2013-06-07T06:32:02Z</time>
      </trkpt>
      <trkpt lat="42.69414" lon="-0.03382">
        <ele>2656</ele>
        <time>2013-06-07T06:32:10Z</time>
      </trkpt>
      <trkpt lat="42.69415" lon="-0.03384">
        <ele>2656</ele>
        <time>2013-06-07T06:32:20Z</time>
      </trkpt>
      <trkpt lat="42.69413" lon="-0.03386">
        <ele>2655</ele>
        <time>2013-06-07T06:32:30Z</time>
      </trkpt>
      <trkpt lat="42.69416" lon="-0.0339">
        <ele>2656</ele>
        <time>2013-06-07T06:32:43Z</time>
      </trkpt>
      <trkpt lat="42.69414" lon="-0.03385">
        <ele>2655</ele>
        <time>2013-06-07T06:32:59Z</time>
      </trkpt>
      <trkpt lat="42.69414" lon="-0.03386">
        <ele>2655</ele>
        <time>2013-06-07T06:33:12Z</time>
      </trkpt>
      <trkpt lat="42.69415" lon="-0.03388">
        <ele>2656</ele>
        <time>2013-06-07T06:33:19Z</time>
      </trkpt>
      <trkpt lat="42.69415" lon="-0.03392">
        <ele>2657</ele>
        <time>2013-06-07T06:33:28Z</time>
      </trkpt>
      <trkpt lat="42.69414" lon="-0.03399">
        <ele>2659</ele>
        <time>2013-06-07T06:33:37Z</time>
      </trkpt>
      <trkpt lat="42.69413" lon="-0.03409">
        <ele>2661</ele>
        <time>2013-06-07T06:33:47Z</time>
      </trkpt>
      <trkpt lat="42.69411" lon="-0.03413">
        <ele>2662</ele>
        <time>2013-06-07T06:33:54Z</time>
      </trkpt>
      <trkpt lat="42.6941" lon="-0.03416">
        <ele>2662</ele>
        <time>2013-06-07T06:34:05Z</time>
      </trkpt>
      <trkpt lat="42.6941" lon="-0.03419">
        <ele>2663</ele>
        <time>2013-06-07T06:34:12Z</time>
      </trkpt>
      <trkpt lat="42.69408" lon="-0.03424">
        <ele>2665</ele>
        <time>2013-06-07T06:34:20Z</time>
      </trkpt>
      <trkpt lat="42.69407" lon="-0.03431">
        <ele>2667</ele>
        <time>2013-06-07T06:34:30Z</time>
      </trkpt>
      <trkpt lat="42.69406" lon="-0.03434">
        <ele>2669</ele>
        <time>2013-06-07T06:34:35Z</time>
      </trkpt>
      <trkpt lat="42.69406" lon="-0.03439">
        <ele>2670</ele>
        <time>2013-06-07T06:34:43Z</time>
      </trkpt>
      <trkpt lat="42.69405" lon="-0.03441">
        <ele>2670</ele>
        <time>2013-06-07T06:34:45Z</time>
      </trkpt>
      <trkpt lat="42.69401" lon="-0.03447">
        <ele>2671</ele>
        <time>2013-06-07T06:34:54Z</time>
      </trkpt>
      <trkpt lat="42.694" lon="-0.0345">
        <ele>2674</ele>
        <time>2013-06-07T06:35:03Z</time>
      </trkpt>
      <trkpt lat="42.69398" lon="-0.03455">
        <ele>2675</ele>
        <time>2013-06-07T06:35:12Z</time>
      </trkpt>
      <trkpt lat="42.69396" lon="-0.03462">
        <ele>2677</ele>
        <time>2013-06-07T06:35:20Z</time>
      </trkpt>
      <trkpt lat="42.69395" lon="-0.03467">
        <ele>2679</ele>
        <time>2013-06-07T06:35:28Z</time>
      </trkpt>
      <trkpt lat="42.69394" lon="-0.03473">
        <ele>2680</ele>
        <time>2013-06-07T06:35:36Z</time>
      </trkpt>
      <trkpt lat="42.69393" lon="-0.03478">
        <ele>2682</ele>
        <time>2013-06-07T06:35:46Z</time>
      </trkpt>
      <trkpt lat="42.69393" lon="-0.03478">
        <ele>2683</ele>
        <time>2013-06-07T06:35:51Z</time>
      </trkpt>
      <trkpt lat="42.69389" lon="-0.03476">
        <ele>2683</ele>
        <time>2013-06-07T06:36:01Z</time>
      </trkpt>
      <trkpt lat="42.69386" lon="-0.03472">
        <ele>2685</ele>
        <time>2013-06-07T06:36:09Z</time>
      </trkpt>
      <trkpt lat="42.69381" lon="-0.03466">
        <ele>2687</ele>
        <time>2013-06-07T06:36:19Z</time>
      </trkpt>
      <trkpt lat="42.69376" lon="-0.03462">
        <ele>2687</ele>
        <time>2013-06-07T06:36:27Z</time>
      </trkpt>
      <trkpt lat="42.69373" lon="-0.03457">
        <ele>2690</ele>
        <time>2013-06-07T06:36:35Z</time>
      </trkpt>
      <trkpt lat="42.69372" lon="-0.03455">
        <ele>2690</ele>
        <time>2013-06-07T06:36:42Z</time>
      </trkpt>
      <trkpt lat="42.69368" lon="-0.0345">
        <ele>2692</ele>
        <time>2013-06-07T06:36:50Z</time>
      </trkpt>
      <trkpt lat="42.69367" lon="-0.03449">
        <ele>2692</ele>
        <time>2013-06-07T06:36:57Z</time>
      </trkpt>
      <trkpt lat="42.69366" lon="-0.03448">
        <ele>2694</ele>
        <time>2013-06-07T06:37:06Z</time>
      </trkpt>
      <trkpt lat="42.69364" lon="-0.03448">
        <ele>2694</ele>
        <time>2013-06-07T06:37:15Z</time>
      </trkpt>
      <trkpt lat="42.69361" lon="-0.03443">
        <ele>2696</ele>
        <time>2013-06-07T06:37:22Z</time>
      </trkpt>
      <trkpt lat="42.69358" lon="-0.03439">
        <ele>2699</ele>
        <time>2013-06-07T06:37:31Z</time>
      </trkpt>
      <trkpt lat="42.69356" lon="-0.03435">
        <ele>2699</ele>
        <time>2013-06-07T06:37:39Z</time>
      </trkpt>
      <trkpt lat="42.69351" lon="-0.03429">
        <ele>2702</ele>
        <time>2013-06-07T06:37:47Z</time>
      </trkpt>
      <trkpt lat="42.69348" lon="-0.03424">
        <ele>2703</ele>
        <time>2013-06-07T06:37:56Z</time>
      </trkpt>
      <trkpt lat="42.69345" lon="-0.03421">
        <ele>2704</ele>
        <time>2013-06-07T06:38:03Z</time>
      </trkpt>
      <trkpt lat="42.69341" lon="-0.03416">
        <ele>2705</ele>
        <time>2013-06-07T06:38:10Z</time>
      </trkpt>
      <trkpt lat="42.6934" lon="-0.03414">
        <ele>2706</ele>
        <time>2013-06-07T06:38:13Z</time>
      </trkpt>
      <trkpt lat="42.69338" lon="-0.03411">
        <ele>2707</ele>
        <time>2013-06-07T06:38:19Z</time>
      </trkpt>
      <trkpt lat="42.69335" lon="-0.03408">
        <ele>2708</ele>
        <time>2013-06-07T06:38:27Z</time>
      </trkpt>
      <trkpt lat="42.69332" lon="-0.03406">
        <ele>2711</ele>
        <time>2013-06-07T06:38:35Z</time>
      </trkpt>
      <trkpt lat="42.69327" lon="-0.03404">
        <ele>2711</ele>
        <time>2013-06-07T06:38:43Z</time>
      </trkpt>
      <trkpt lat="42.69325" lon="-0.034">
        <ele>2714</ele>
        <time>2013-06-07T06:38:50Z</time>
      </trkpt>
      <trkpt lat="42.69321" lon="-0.03399">
        <ele>2715</ele>
        <time>2013-06-07T06:38:59Z</time>
      </trkpt>
      <trkpt lat="42.6932" lon="-0.03397">
        <ele>2717</ele>
        <time>2013-06-07T06:39:02Z</time>
      </trkpt>
      <trkpt lat="42.69317" lon="-0.03393">
        <ele>2717</ele>
        <time>2013-06-07T06:39:10Z</time>
      </trkpt>
      <trkpt lat="42.69314" lon="-0.03389">
        <ele>2719</ele>
        <time>2013-06-07T06:39:20Z</time>
      </trkpt>
      <trkpt lat="42.69309" lon="-0.03386">
        <ele>2721</ele>
        <time>2013-06-07T06:39:28Z</time>
      </trkpt>
      <trkpt lat="42.69306" lon="-0.03382">
        <ele>2722</ele>
        <time>2013-06-07T06:39:37Z</time>
      </trkpt>
      <trkpt lat="42.69299" lon="-0.03372">
        <ele>2722</ele>
        <time>2013-06-07T06:39:50Z</time>
      </trkpt>
      <trkpt lat="42.69298" lon="-0.03372">
        <ele>2722</ele>
        <time>2013-06-07T06:39:56Z</time>
      </trkpt>
      <trkpt lat="42.69308" lon="-0.03385">
        <ele>2722</ele>
        <time>2013-06-07T06:40:13Z</time>
      </trkpt>
      <trkpt lat="42.69309" lon="-0.03386">
        <ele>2722</ele>
        <time>2013-06-07T06:40:18Z</time>
      </trkpt>
      <trkpt lat="42.69308" lon="-0.03386">
        <ele>2722</ele>
        <time>2013-06-07T06:40:24Z</time>
      </trkpt>
      <trkpt lat="42.69309" lon="-0.03392">
        <ele>2724</ele>
        <time>2013-06-07T06:40:33Z</time>
      </trkpt>
      <trkpt lat="42.69309" lon="-0.03401">
        <ele>2725</ele>
        <time>2013-06-07T06:40:42Z</time>
      </trkpt>
      <trkpt lat="42.69309" lon="-0.03407">
        <ele>2726</ele>
        <time>2013-06-07T06:40:52Z</time>
      </trkpt>
      <trkpt lat="42.69308" lon="-0.03408">
        <ele>2728</ele>
        <time>2013-06-07T06:40:55Z</time>
      </trkpt>
      <trkpt lat="42.69306" lon="-0.03411">
        <ele>2729</ele>
        <time>2013-06-07T06:41:03Z</time>
      </trkpt>
      <trkpt lat="42.69303" lon="-0.0341">
        <ele>2729</ele>
        <time>2013-06-07T06:41:11Z</time>
      </trkpt>
      <trkpt lat="42.69297" lon="-0.03407">
        <ele>2731</ele>
        <time>2013-06-07T06:41:20Z</time>
      </trkpt>
      <trkpt lat="42.6929" lon="-0.03405">
        <ele>2733</ele>
        <time>2013-06-07T06:41:29Z</time>
      </trkpt>
      <trkpt lat="42.69287" lon="-0.03411">
        <ele>2733</ele>
        <time>2013-06-07T06:41:36Z</time>
      </trkpt>
      <trkpt lat="42.69287" lon="-0.03412">
        <ele>2734</ele>
        <time>2013-06-07T06:41:37Z</time>
      </trkpt>
      <trkpt lat="42.69283" lon="-0.03418">
        <ele>2735</ele>
        <time>2013-06-07T06:41:46Z</time>
      </trkpt>
      <trkpt lat="42.6928" lon="-0.03425">
        <ele>2736</ele>
        <time>2013-06-07T06:41:53Z</time>
      </trkpt>
      <trkpt lat="42.69278" lon="-0.03431">
        <ele>2737</ele>
        <time>2013-06-07T06:42:03Z</time>
      </trkpt>
      <trkpt lat="42.69274" lon="-0.03438">
        <ele>2739</ele>
        <time>2013-06-07T06:42:12Z</time>
      </trkpt>
      <trkpt lat="42.69271" lon="-0.03445">
        <ele>2740</ele>
        <time>2013-06-07T06:42:20Z</time>
      </trkpt>
      <trkpt lat="42.69273" lon="-0.03446">
        <ele>2740</ele>
        <time>2013-06-07T06:42:29Z</time>
      </trkpt>
      <trkpt lat="42.69274" lon="-0.03447">
        <ele>2739</ele>
        <time>2013-06-07T06:42:48Z</time>
      </trkpt>
      <trkpt lat="42.69272" lon="-0.03445">
        <ele>2740</ele>
        <time>2013-06-07T06:42:58Z</time>
      </trkpt>
      <trkpt lat="42.69271" lon="-0.03445">
        <ele>2739</ele>
        <time>2013-06-07T06:43:10Z</time>
      </trkpt>
      <trkpt lat="42.6927" lon="-0.03445">
        <ele>2739</ele>
        <time>2013-06-07T06:43:15Z</time>
      </trkpt>
      <trkpt lat="42.6927" lon="-0.03443">
        <ele>2740</ele>
        <time>2013-06-07T06:43:35Z</time>
      </trkpt>
      <trkpt lat="42.6927" lon="-0.03443">
        <ele>2740</ele>
        <time>2013-06-07T06:43:47Z</time>
      </trkpt>
      <trkpt lat="42.69269" lon="-0.03443">
        <ele>2740</ele>
        <time>2013-06-07T06:44:00Z</time>
      </trkpt>
      <trkpt lat="42.69269" lon="-0.03443">
        <ele>2740</ele>
        <time>2013-06-07T06:44:10Z</time>
      </trkpt>
      <trkpt lat="42.69267" lon="-0.03448">
        <ele>2741</ele>
        <time>2013-06-07T06:44:19Z</time>
      </trkpt>
      <trkpt lat="42.69265" lon="-0.03454">
        <ele>2742</ele>
        <time>2013-06-07T06:44:25Z</time>
      </trkpt>
      <trkpt lat="42.69259" lon="-0.03459">
        <ele>2742</ele>
        <time>2013-06-07T06:44:34Z</time>
      </trkpt>
      <trkpt lat="42.69257" lon="-0.03464">
        <ele>2742</ele>
        <time>2013-06-07T06:44:46Z</time>
      </trkpt>
      <trkpt lat="42.69258" lon="-0.03472">
        <ele>2742</ele>
        <time>2013-06-07T06:44:53Z</time>
      </trkpt>
      <trkpt lat="42.69257" lon="-0.03478">
        <ele>2742</ele>
        <time>2013-06-07T06:45:01Z</time>
      </trkpt>
      <trkpt lat="42.69257" lon="-0.03481">
        <ele>2741</ele>
        <time>2013-06-07T06:45:08Z</time>
      </trkpt>
      <trkpt lat="42.69257" lon="-0.03494">
        <ele>2742</ele>
        <time>2013-06-07T06:45:18Z</time>
      </trkpt>
      <trkpt lat="42.69256" lon="-0.03495">
        <ele>2742</ele>
        <time>2013-06-07T06:45:33Z</time>
      </trkpt>
      <trkpt lat="42.69256" lon="-0.03497">
        <ele>2742</ele>
        <time>2013-06-07T06:45:39Z</time>
      </trkpt>
      <trkpt lat="42.69255" lon="-0.03497">
        <ele>2742</ele>
        <time>2013-06-07T06:45:50Z</time>
      </trkpt>
      <trkpt lat="42.69256" lon="-0.035">
        <ele>2741</ele>
        <time>2013-06-07T06:45:59Z</time>
      </trkpt>
      <trkpt lat="42.69256" lon="-0.03503">
        <ele>2742</ele>
        <time>2013-06-07T06:46:01Z</time>
      </trkpt>
      <trkpt lat="42.69254" lon="-0.03514">
        <ele>2742</ele>
        <time>2013-06-07T06:46:11Z</time>
      </trkpt>
      <trkpt lat="42.69254" lon="-0.03514">
        <ele>2743</ele>
        <time>2013-06-07T06:46:14Z</time>
      </trkpt>
      <trkpt lat="42.69249" lon="-0.03518">
        <ele>2743</ele>
        <time>2013-06-07T06:46:22Z</time>
      </trkpt>
      <trkpt lat="42.69244" lon="-0.03523">
        <ele>2745</ele>
        <time>2013-06-07T06:46:31Z</time>
      </trkpt>
      <trkpt lat="42.69239" lon="-0.03527">
        <ele>2747</ele>
        <time>2013-06-07T06:46:39Z</time>
      </trkpt>
      <trkpt lat="42.69234" lon="-0.03528">
        <ele>2747</ele>
        <time>2013-06-07T06:46:47Z</time>
      </trkpt>
      <trkpt lat="42.69228" lon="-0.03528">
        <ele>2749</ele>
        <time>2013-06-07T06:46:55Z</time>
      </trkpt>
      <trkpt lat="42.69222" lon="-0.03523">
        <ele>2750</ele>
        <time>2013-06-07T06:47:05Z</time>
      </trkpt>
      <trkpt lat="42.69216" lon="-0.0352">
        <ele>2750</ele>
        <time>2013-06-07T06:47:12Z</time>
      </trkpt>
      <trkpt lat="42.69215" lon="-0.0352">
        <ele>2751</ele>
        <time>2013-06-07T06:47:13Z</time>
      </trkpt>
      <trkpt lat="42.6921" lon="-0.03515">
        <ele>2753</ele>
        <time>2013-06-07T06:47:21Z</time>
      </trkpt>
      <trkpt lat="42.69205" lon="-0.03509">
        <ele>2753</ele>
        <time>2013-06-07T06:47:30Z</time>
      </trkpt>
      <trkpt lat="42.692" lon="-0.03503">
        <ele>2754</ele>
        <time>2013-06-07T06:47:39Z</time>
      </trkpt>
      <trkpt lat="42.69195" lon="-0.03496">
        <ele>2755</ele>
        <time>2013-06-07T06:47:47Z</time>
      </trkpt>
      <trkpt lat="42.6919" lon="-0.0349">
        <ele>2757</ele>
        <time>2013-06-07T06:47:56Z</time>
      </trkpt>
      <trkpt lat="42.69185" lon="-0.03485">
        <ele>2757</ele>
        <time>2013-06-07T06:48:04Z</time>
      </trkpt>
      <trkpt lat="42.69181" lon="-0.03479">
        <ele>2759</ele>
        <time>2013-06-07T06:48:12Z</time>
      </trkpt>
      <trkpt lat="42.69177" lon="-0.03474">
        <ele>2760</ele>
        <time>2013-06-07T06:48:21Z</time>
      </trkpt>
      <trkpt lat="42.69172" lon="-0.0347">
        <ele>2761</ele>
        <time>2013-06-07T06:48:29Z</time>
      </trkpt>
      <trkpt lat="42.69169" lon="-0.03463">
        <ele>2762</ele>
        <time>2013-06-07T06:48:38Z</time>
      </trkpt>
      <trkpt lat="42.69166" lon="-0.03455">
        <ele>2764</ele>
        <time>2013-06-07T06:48:47Z</time>
      </trkpt>
      <trkpt lat="42.69166" lon="-0.03449">
        <ele>2764</ele>
        <time>2013-06-07T06:48:56Z</time>
      </trkpt>
      <trkpt lat="42.69168" lon="-0.03454">
        <ele>2764</ele>
        <time>2013-06-07T06:49:02Z</time>
      </trkpt>
      <trkpt lat="42.69169" lon="-0.03454">
        <ele>2765</ele>
        <time>2013-06-07T06:49:15Z</time>
      </trkpt>
      <trkpt lat="42.69168" lon="-0.03456">
        <ele>2765</ele>
        <time>2013-06-07T06:49:32Z</time>
      </trkpt>
      <trkpt lat="42.69167" lon="-0.03455">
        <ele>2765</ele>
        <time>2013-06-07T06:49:44Z</time>
      </trkpt>
      <trkpt lat="42.69168" lon="-0.03458">
        <ele>2765</ele>
        <time>2013-06-07T06:49:49Z</time>
      </trkpt>
      <trkpt lat="42.69167" lon="-0.03463">
        <ele>2766</ele>
        <time>2013-06-07T06:49:56Z</time>
      </trkpt>
      <trkpt lat="42.69166" lon="-0.0347">
        <ele>2768</ele>
        <time>2013-06-07T06:50:03Z</time>
      </trkpt>
      <trkpt lat="42.69165" lon="-0.03479">
        <ele>2769</ele>
        <time>2013-06-07T06:50:11Z</time>
      </trkpt>
      <trkpt lat="42.69165" lon="-0.03488">
        <ele>2771</ele>
        <time>2013-06-07T06:50:20Z</time>
      </trkpt>
      <trkpt lat="42.69165" lon="-0.0349">
        <ele>2771</ele>
        <time>2013-06-07T06:50:21Z</time>
      </trkpt>
      <trkpt lat="42.69164" lon="-0.03498">
        <ele>2772</ele>
        <time>2013-06-07T06:50:28Z</time>
      </trkpt>
      <trkpt lat="42.69165" lon="-0.03494">
        <ele>2772</ele>
        <time>2013-06-07T06:50:31Z</time>
      </trkpt>
      <trkpt lat="42.69163" lon="-0.03491">
        <ele>2772</ele>
        <time>2013-06-07T06:50:37Z</time>
      </trkpt>
      <trkpt lat="42.6916" lon="-0.03488">
        <ele>2774</ele>
        <time>2013-06-07T06:50:44Z</time>
      </trkpt>
      <trkpt lat="42.69157" lon="-0.03483">
        <ele>2774</ele>
        <time>2013-06-07T06:50:51Z</time>
      </trkpt>
    </trkseg>
  </trk>
</gpx>